Time;durP1;ratioP1;P1;durP2;ratioP2;P2;SDS_P1;SDS_P2;PMS_P1;PMS_P2;Temp;Humidity;BMP_temperature;BMP_pressure;BME280_temperature;BME280_humidity;BME280_pressure;Samples;Min_cycle;Max_cycle;Signal;HPM_P1;HPM_P2
2022/02/18 00:01:24;;;;;;;5.97;2.50;;;16.00;50.90;;;;;;5016202;28;20432;-84
2022/02/18 00:03:53;;;;;;;5.23;1.67;;;15.90;50.70;;;;;;5015748;28;20456;-84
2022/02/18 00:06:23;;;;;;;5.10;2.20;;;15.90;50.70;;;;;;5015231;28;20500;-84
2022/02/18 00:08:51;;;;;;;2.20;1.70;;;16.00;50.90;;;;;;5015106;28;20441;-85
2022/02/18 00:11:19;;;;;;;8.67;2.10;;;15.90;50.80;;;;;;5015556;28;20476;-84
2022/02/18 00:13:47;;;;;;;3.90;1.80;;;15.90;50.80;;;;;;5015003;28;20468;-84
2022/02/18 00:16:16;;;;;;;3.93;2.13;;;15.90;51.00;;;;;;5015043;28;20477;-84
2022/02/18 00:18:44;;;;;;;7.93;2.30;;;15.90;51.00;;;;;;5014936;28;20472;-84
2022/02/18 00:21:13;;;;;;;4.10;1.93;;;15.90;51.00;;;;;;5014585;28;20473;-85
2022/02/18 00:23:42;;;;;;;4.43;2.10;;;15.90;51.10;;;;;;5015040;28;20460;-84
2022/02/18 00:26:11;;;;;;;5.17;1.97;;;15.80;51.00;;;;;;5009988;28;20476;-84
2022/02/18 00:28:39;;;;;;;5.40;2.43;;;15.80;51.70;;;;;;5014777;28;20422;-84
2022/02/18 00:31:07;;;;;;;5.10;2.30;;;15.80;51.00;;;;;;5015148;28;20417;-85
2022/02/18 00:33:35;;;;;;;5.90;2.20;;;15.80;51.10;;;;;;5015684;28;20433;-84
2022/02/18 00:36:03;;;;;;;2.30;1.50;;;15.80;51.10;;;;;;5014721;28;20456;-84
2022/02/18 00:38:31;;;;;;;4.87;1.60;;;15.80;51.00;;;;;;5015718;28;20495;-84
2022/02/18 00:41:00;;;;;;;4.50;2.30;;;15.70;51.10;;;;;;5015619;28;20460;-82
2022/02/18 00:43:28;;;;;;;4.00;1.60;;;15.80;51.20;;;;;;5011996;28;20453;-83
2022/02/18 00:45:56;;;;;;;4.80;1.63;;;15.80;51.20;;;;;;5014990;28;20456;-84
2022/02/18 00:48:24;;;;;;;2.50;1.53;;;15.80;51.20;;;;;;5015252;28;20446;-84
2022/02/18 00:50:52;;;;;;;4.50;2.10;;;15.70;51.10;;;;;;5014740;28;20462;-84
2022/02/18 00:53:19;;;;;;;3.43;1.63;;;15.80;51.40;;;;;;5015004;28;20454;-84
2022/02/18 00:55:50;;;;;;;2.20;1.80;;;15.70;51.10;;;;;;5015067;28;20465;-85
2022/02/18 00:58:20;;;;;;;8.50;2.07;;;15.80;51.40;;;;;;5014580;28;20473;-84
2022/02/18 01:00:49;;;;;;;4.07;1.93;;;15.80;51.30;;;;;;5008747;28;20480;-84
2022/02/18 01:03:17;;;;;;;4.00;1.87;;;15.80;51.40;;;;;;5014656;28;20437;-84
2022/02/18 01:05:46;;;;;;;4.37;2.17;;;15.80;51.30;;;;;;5010652;28;20500;-84
2022/02/18 01:08:14;;;;;;;3.80;2.20;;;15.80;51.40;;;;;;5014601;28;20422;-84
2022/02/18 01:10:41;;;;;;;4.10;2.07;;;15.80;51.40;;;;;;5013850;28;20464;-84
2022/02/18 01:13:09;;;;;;;3.93;1.90;;;15.70;51.40;;;;;;5014657;28;20506;-84
2022/02/18 01:15:39;;;;;;;6.13;1.90;;;15.80;51.50;;;;;;5014423;28;20460;-84
2022/02/18 01:18:07;;;;;;;2.47;1.87;;;15.70;51.40;;;;;;5010621;28;20453;-84
2022/02/18 01:20:35;;;;;;;5.27;1.90;;;15.70;51.40;;;;;;5013796;28;20442;-85
2022/02/18 01:23:02;;;;;;;4.20;2.50;;;15.70;51.40;;;;;;5014122;28;20468;-83
2022/02/18 01:25:30;;;;;;;4.80;1.60;;;15.70;51.30;;;;;;5014227;28;20457;-84
2022/02/18 01:27:58;;;;;;;3.97;1.70;;;15.70;51.40;;;;;;5014928;28;20454;-83
2022/02/18 01:30:27;;;;;;;4.93;2.13;;;15.70;51.50;;;;;;5014311;28;20464;-82
2022/02/18 01:32:56;;;;;;;3.60;1.93;;;15.70;51.40;;;;;;5013776;28;20445;-83
2022/02/18 01:35:24;;;;;;;3.70;2.03;;;15.70;51.50;;;;;;4999607;28;20508;-84
2022/02/18 01:37:53;;;;;;;2.23;1.90;;;15.80;51.50;;;;;;5002500;28;20449;-85
2022/02/18 01:40:21;;;;;;;4.53;2.00;;;15.80;51.40;;;;;;5002950;28;20477;-85
2022/02/18 01:42:50;;;;;;;4.13;2.00;;;15.70;51.50;;;;;;5002648;28;20452;-85
2022/02/18 01:45:18;;;;;;;2.20;1.50;;;15.70;52.20;;;;;;5003043;28;20476;-84
2022/02/18 01:47:46;;;;;;;2.53;1.40;;;15.70;51.60;;;;;;5002482;28;20509;-85
2022/02/18 01:50:15;;;;;;;2.10;1.40;;;15.70;51.50;;;;;;5010602;28;20450;-85
2022/02/18 01:52:46;;;;;;;3.90;2.03;;;15.70;51.60;;;;;;5011205;28;20489;-86
2022/02/18 01:55:14;;;;;;;2.63;1.67;;;15.70;51.60;;;;;;5010801;28;20493;-85
2022/02/18 01:57:45;;;;;;;3.83;1.93;;;15.70;51.40;;;;;;5011514;28;20566;-83
2022/02/18 02:00:13;;;;;;;4.00;2.03;;;15.70;51.60;;;;;;5010620;28;20477;-84
2022/02/18 02:02:42;;;;;;;4.00;2.20;;;15.70;51.50;;;;;;5010721;28;20473;-84
2022/02/18 02:05:12;;;;;;;2.80;1.90;;;15.60;51.50;;;;;;5009408;28;20491;-85
2022/02/18 02:07:42;;;;;;;3.53;2.00;;;15.60;51.70;;;;;;4997158;28;20472;-86
2022/02/18 02:10:11;;;;;;;6.17;2.20;;;15.60;51.60;;;;;;5001476;28;20468;-83
2022/02/18 02:12:42;;;;;;;3.87;1.93;;;15.60;51.70;;;;;;4999167;28;20495;-85
2022/02/18 02:15:11;;;;;;;3.07;1.80;;;15.60;51.60;;;;;;4981296;28;20489;-85
2022/02/18 02:17:40;;;;;;;8.00;2.00;;;15.60;51.70;;;;;;4981679;28;20457;-86
2022/02/18 02:20:09;;;;;;;3.13;1.90;;;15.60;51.80;;;;;;4980375;28;20466;-85
2022/02/18 02:26:26;;;;;;;6.07;2.10;;;15.60;51.80;;;;;;4990789;28;20540;-86
2022/02/18 02:28:54;;;;;;;3.87;2.00;;;15.60;51.90;;;;;;4998164;28;20477;-84
2022/02/18 02:31:23;;;;;;;1.87;1.77;;;15.50;51.90;;;;;;5001018;28;20442;-84
2022/02/18 02:33:51;;;;;;;2.03;1.50;;;15.50;51.90;;;;;;4996901;28;20473;-84
2022/02/18 02:36:20;;;;;;;3.70;1.70;;;15.50;51.90;;;;;;4994469;28;20520;-85
2022/02/18 02:38:51;;;;;;;6.10;2.40;;;15.50;52.00;;;;;;4992917;28;20468;-84
2022/02/18 02:41:19;;;;;;;4.73;2.00;;;15.50;51.90;;;;;;4995788;28;20445;-85
2022/02/18 02:43:48;;;;;;;5.87;1.87;;;15.60;52.10;;;;;;4995262;28;20511;-86
2022/02/18 02:46:16;;;;;;;3.87;2.10;;;15.50;52.00;;;;;;4994288;28;20442;-86
2022/02/18 02:48:44;;;;;;;5.93;1.77;;;15.50;52.00;;;;;;4994820;28;20508;-86
2022/02/18 02:51:12;;;;;;;4.30;1.80;;;15.50;52.00;;;;;;4995938;28;20442;-86
2022/02/18 02:53:40;;;;;;;5.63;2.40;;;15.50;52.00;;;;;;4994659;28;20495;-86
2022/02/18 02:56:08;;;;;;;4.80;1.90;;;15.50;52.10;;;;;;4989359;28;20477;-86
2022/02/18 02:58:37;;;;;;;2.80;1.73;;;15.50;52.10;;;;;;4994328;28;20434;-86
2022/02/18 03:01:07;;;;;;;4.23;2.10;;;15.50;52.00;;;;;;4993821;28;20477;-84
2022/02/18 03:03:35;;;;;;;5.27;1.97;;;15.50;52.10;;;;;;4995126;28;20445;-85
2022/02/18 03:06:03;;;;;;;3.23;2.10;;;15.50;52.30;;;;;;4994784;28;20450;-85
2022/02/18 03:08:31;;;;;;;3.87;1.90;;;15.40;52.20;;;;;;4997207;28;20434;-83
2022/02/18 03:13:41;;;;;;;2.80;2.10;;;15.40;52.20;;;;;;4994377;28;20445;-84
2022/02/18 03:16:10;;;;;;;4.70;1.93;;;15.40;52.30;;;;;;4997695;28;20473;-83
2022/02/18 03:18:38;;;;;;;5.17;2.27;;;15.40;52.30;;;;;;4997271;28;20437;-84
2022/02/18 03:21:06;;;;;;;3.13;1.70;;;15.40;52.20;;;;;;4997554;28;20476;-83
2022/02/18 03:23:34;;;;;;;2.70;1.90;;;15.40;52.30;;;;;;4998771;28;20445;-83
2022/02/18 03:26:02;;;;;;;3.20;1.80;;;15.40;52.20;;;;;;4998819;28;20508;-83
2022/02/18 03:28:30;;;;;;;2.00;1.90;;;15.40;52.30;;;;;;4996754;28;20453;-83
2022/02/18 03:30:59;;;;;;;5.70;2.40;;;15.40;52.30;;;;;;5000854;28;20475;-82
2022/02/18 03:33:28;;;;;;;1.47;1.37;;;15.40;52.30;;;;;;4999311;28;20496;-82
2022/02/18 03:35:56;;;;;;;6.33;1.97;;;15.40;52.30;;;;;;4999333;28;20453;-83
2022/02/18 03:38:25;;;;;;;2.73;1.87;;;15.40;52.40;;;;;;5000536;28;20476;-83
2022/02/18 03:40:53;;;;;;;4.20;1.77;;;15.40;52.40;;;;;;5000513;28;20469;-83
2022/02/18 03:43:21;;;;;;;3.03;1.87;;;15.30;52.20;;;;;;5000625;28;20445;-82
2022/02/18 03:45:49;;;;;;;1.83;1.60;;;15.30;52.30;;;;;;5001392;28;20469;-82
2022/02/18 03:48:17;;;;;;;5.10;1.97;;;15.30;52.40;;;;;;4995171;28;20442;-82
2022/02/18 03:50:46;;;;;;;3.17;2.03;;;15.30;52.30;;;;;;5002657;28;20469;-82
2022/02/18 03:53:15;;;;;;;4.87;1.90;;;15.40;52.50;;;;;;5002194;28;20507;-83
2022/02/18 03:55:43;;;;;;;4.40;1.57;;;15.30;52.40;;;;;;5001406;28;20469;-83
2022/02/18 03:58:11;;;;;;;7.80;2.10;;;15.40;52.60;;;;;;5002494;28;20453;-83
2022/02/18 04:00:38;;;;;;;4.60;1.90;;;15.40;52.40;;;;;;5001998;28;20572;-83
2022/02/18 04:03:07;;;;;;;3.30;1.90;;;15.30;52.40;;;;;;5003641;28;20521;-83
2022/02/18 04:05:35;;;;;;;2.60;2.07;;;15.30;52.50;;;;;;5000795;28;20484;-83
2022/02/18 04:08:05;;;;;;;3.60;1.80;;;15.30;52.40;;;;;;5003525;28;20445;-83
2022/02/18 04:10:33;;;;;;;3.80;1.80;;;15.40;52.50;;;;;;5003901;28;20441;-83
2022/02/18 04:13:01;;;;;;;2.27;2.00;;;15.30;52.20;;;;;;5007613;28;20468;-83
2022/02/18 04:15:28;;;;;;;4.90;2.00;;;15.30;52.50;;;;;;5006980;28;20453;-83
2022/02/18 04:17:56;;;;;;;4.90;1.90;;;15.30;52.40;;;;;;5007836;28;20437;-83
2022/02/18 04:20:25;;;;;;;5.10;2.17;;;15.30;52.40;;;;;;5005076;28;20481;-83
2022/02/18 04:23:14;;;;;;;4.20;1.90;;;15.40;52.60;;;;;;5007122;28;20429;-83
2022/02/18 04:25:42;;;;;;;7.17;1.90;;;15.30;52.30;;;;;;5007272;28;20453;-83
2022/02/18 04:28:10;;;;;;;4.23;2.00;;;15.30;52.40;;;;;;5007598;28;20444;-83
2022/02/18 04:30:37;;;;;;;5.23;2.37;;;15.30;52.50;;;;;;5007197;28;20441;-83
2022/02/18 04:33:05;;;;;;;4.93;2.27;;;15.30;52.40;;;;;;5007864;28;20716;-83
2022/02/18 04:35:33;;;;;;;2.40;2.00;;;15.30;52.80;;;;;;5008196;28;20516;-83
2022/02/18 04:38:01;;;;;;;2.23;1.60;;;15.30;52.40;;;;;;5004541;28;20460;-83
2022/02/18 04:40:30;;;;;;;3.63;2.10;;;15.30;52.50;;;;;;5008159;28;20980;-83
2022/02/18 04:42:58;;;;;;;3.10;2.23;;;15.30;52.50;;;;;;5009039;28;20480;-83
2022/02/18 04:45:26;;;;;;;4.40;2.17;;;15.30;52.40;;;;;;5009259;28;20469;-83
2022/02/18 04:47:54;;;;;;;3.00;1.90;;;15.30;52.40;;;;;;5009275;28;20488;-83
2022/02/18 04:50:23;;;;;;;4.70;1.90;;;15.30;52.20;;;;;;5009334;28;20445;-83
2022/02/18 04:52:50;;;;;;;3.87;1.80;;;15.30;52.20;;;;;;5009231;28;20453;-83
2022/02/18 04:55:18;;;;;;;4.87;2.53;;;15.30;52.20;;;;;;5007779;28;20445;-83
2022/02/18 04:57:48;;;;;;;5.80;2.10;;;15.30;52.20;;;;;;5007066;28;20442;-83
2022/02/18 05:00:17;;;;;;;5.13;2.13;;;15.30;52.20;;;;;;5009583;28;20436;-83
2022/02/18 05:02:45;;;;;;;4.13;2.70;;;15.30;52.20;;;;;;5009566;28;20449;-83
2022/02/18 05:05:13;;;;;;;3.57;1.97;;;15.30;52.20;;;;;;5008356;28;20465;-83
2022/02/18 05:07:41;;;;;;;4.53;2.07;;;15.30;52.30;;;;;;5008400;28;20512;-83
2022/02/18 05:10:09;;;;;;;3.27;1.87;;;15.30;52.20;;;;;;5009518;28;20465;-83
2022/02/18 05:12:38;;;;;;;5.13;2.20;;;15.30;52.20;;;;;;5007576;28;20458;-83
2022/02/18 05:15:08;;;;;;;8.50;2.03;;;15.30;52.30;;;;;;5009506;28;20457;-83
2022/02/18 05:17:36;;;;;;;3.93;2.20;;;15.30;52.20;;;;;;5009679;28;20437;-82
2022/02/18 05:20:05;;;;;;;5.87;2.27;;;15.30;52.30;;;;;;5009234;28;20443;-82
2022/02/18 05:22:33;;;;;;;3.27;1.70;;;15.30;52.30;;;;;;5009946;28;20466;-82
2022/02/18 05:25:01;;;;;;;3.13;2.20;;;15.30;52.30;;;;;;5009536;28;20446;-82
2022/02/18 05:27:29;;;;;;;6.77;2.13;;;15.40;52.20;;;;;;5009313;28;20484;-83
2022/02/18 05:29:57;;;;;;;5.67;2.10;;;15.30;52.20;;;;;;5009967;28;20480;-83
2022/02/18 05:32:26;;;;;;;6.13;2.13;;;15.30;52.20;;;;;;5008007;28;20448;-83
2022/02/18 05:34:54;;;;;;;3.20;1.80;;;15.30;52.90;;;;;;5009483;28;20449;-83
2022/02/18 05:37:22;;;;;;;4.20;2.43;;;15.30;52.20;;;;;;5010299;28;20507;-83
2022/02/18 05:39:50;;;;;;;5.80;2.30;;;15.30;52.30;;;;;;5010282;28;20438;-83
2022/02/18 05:42:18;;;;;;;4.20;2.03;;;15.30;52.30;;;;;;5009401;28;20508;-83
2022/02/18 05:44:46;;;;;;;6.27;1.93;;;15.30;52.30;;;;;;5009891;28;20473;-82
2022/02/18 05:47:14;;;;;;;4.60;2.17;;;15.30;52.40;;;;;;5004530;28;20563;-84
2022/02/18 05:49:43;;;;;;;4.50;2.43;;;15.30;52.20;;;;;;5009258;28;20442;-84
2022/02/18 05:52:11;;;;;;;4.17;2.03;;;15.30;52.20;;;;;;5009484;28;20476;-84
2022/02/18 05:54:39;;;;;;;6.10;2.10;;;15.30;52.20;;;;;;5008758;28;20508;-84
2022/02/18 05:57:07;;;;;;;3.50;2.00;;;15.30;52.20;;;;;;5009644;28;20441;-84
2022/02/18 05:59:35;;;;;;;4.43;2.40;;;15.30;52.20;;;;;;5009157;28;20441;-84
2022/02/18 06:02:03;;;;;;;5.90;2.47;;;15.30;52.10;;;;;;5009441;28;20519;-83
2022/02/18 06:04:31;;;;;;;4.20;1.87;;;15.30;52.80;;;;;;5009519;28;20465;-82
2022/02/18 06:07:01;;;;;;;3.83;2.03;;;15.30;52.20;;;;;;5005428;28;20449;-82
2022/02/18 06:09:29;;;;;;;6.83;2.23;;;15.30;52.10;;;;;;5009336;28;20508;-82
2022/02/18 06:11:57;;;;;;;5.20;2.43;;;15.30;52.20;;;;;;5009651;28;20449;-83
2022/02/18 06:14:25;;;;;;;7.53;2.50;;;15.30;52.10;;;;;;5009482;28;20465;-82
2022/02/18 06:16:53;;;;;;;5.10;2.27;;;15.30;52.60;;;;;;5009946;28;20453;-84
2022/02/18 06:19:21;;;;;;;5.53;2.33;;;15.30;52.20;;;;;;5010266;28;20465;-83
2022/02/18 06:21:48;;;;;;;3.10;1.90;;;15.30;52.10;;;;;;5005280;28;20528;-83
2022/02/18 06:24:18;;;;;;;5.40;2.20;;;15.30;52.10;;;;;;5009710;28;20449;-83
2022/02/18 06:26:46;;;;;;;7.73;2.00;;;15.30;51.90;;;;;;5010042;28;20457;-83
2022/02/18 06:29:14;;;;;;;6.70;2.57;;;15.30;52.10;;;;;;5010494;28;20452;-83
2022/02/18 06:31:41;;;;;;;2.80;2.00;;;15.30;52.00;;;;;;5011936;28;20449;-83
2022/02/18 06:34:09;;;;;;;5.23;2.10;;;15.30;52.00;;;;;;5011630;28;20437;-83
2022/02/18 06:36:37;;;;;;;5.47;2.20;;;15.30;52.00;;;;;;5011245;28;20436;-83
2022/02/18 06:39:06;;;;;;;4.83;1.93;;;15.30;52.00;;;;;;5008725;28;20449;-83
2022/02/18 06:41:35;;;;;;;6.50;2.07;;;15.30;52.60;;;;;;5010461;28;20477;-84
2022/02/18 06:44:06;;;;;;;5.13;2.30;;;15.30;51.90;;;;;;5011241;28;20456;-83
2022/02/18 06:46:34;;;;;;;6.43;2.10;;;15.30;52.60;;;;;;5011285;28;20472;-85
2022/02/18 06:49:01;;;;;;;7.27;2.60;;;15.20;52.00;;;;;;5011516;28;20449;-84
2022/02/18 06:51:30;;;;;;;3.80;1.87;;;15.30;51.90;;;;;;5011556;28;20445;-85
2022/02/18 06:53:57;;;;;;;7.30;2.80;;;15.30;51.90;;;;;;5008995;28;20476;-84
2022/02/18 06:56:47;;;;;;;5.20;2.50;;;15.20;52.00;;;;;;5008620;28;20448;-85
2022/02/18 06:59:15;;;;;;;4.00;2.50;;;15.20;52.00;;;;;;5011770;28;20533;-85
2022/02/18 07:01:43;;;;;;;2.90;1.83;;;15.20;52.00;;;;;;5012230;28;20465;-85
2022/02/18 07:04:10;;;;;;;4.37;2.10;;;15.20;52.00;;;;;;5012054;28;20449;-84
2022/02/18 07:06:38;;;;;;;6.57;2.40;;;15.20;52.00;;;;;;5011766;28;20449;-84
2022/02/18 07:09:07;;;;;;;6.27;2.27;;;15.20;52.00;;;;;;5011700;28;20476;-84
2022/02/18 07:11:35;;;;;;;4.97;2.50;;;15.20;52.00;;;;;;5008071;28;20453;-85
2022/02/18 07:14:04;;;;;;;4.50;2.27;;;15.20;52.20;;;;;;5012350;28;20465;-84
2022/02/18 07:16:33;;;;;;;5.17;2.27;;;15.20;52.00;;;;;;5012101;28;20422;-84
2022/02/18 07:19:01;;;;;;;6.20;3.00;;;15.20;52.00;;;;;;5012212;28;20457;-84
2022/02/18 07:21:29;;;;;;;6.90;2.70;;;15.20;52.20;;;;;;5011924;28;20452;-84
2022/02/18 07:23:57;;;;;;;4.47;2.20;;;15.20;52.20;;;;;;5011762;28;20454;-84
2022/02/18 07:26:25;;;;;;;7.23;2.50;;;15.20;52.20;;;;;;5011434;28;20496;-85
2022/02/18 07:32:33;;;;;;;5.30;2.77;;;15.20;52.40;;;;;;4991846;28;20434;-85
2022/02/18 07:35:01;;;;;;;3.73;2.27;;;15.30;53.00;;;;;;4992429;28;20462;-85
2022/02/18 07:37:29;;;;;;;9.50;2.40;;;15.30;52.30;;;;;;4992223;28;20457;-85
2022/02/18 07:39:58;;;;;;;4.97;2.20;;;15.30;52.30;;;;;;4992463;28;20450;-86
2022/02/18 07:42:26;;;;;;;3.97;2.33;;;15.30;52.40;;;;;;4992648;28;20521;-84
2022/02/18 07:44:55;;;;;;;2.40;1.90;;;15.30;52.40;;;;;;4999116;28;20533;-85
2022/02/18 07:47:23;;;;;;;4.77;2.43;;;15.30;52.30;;;;;;5015089;28;20421;-84
2022/02/18 07:49:57;;;;;;;4.57;2.17;;;15.40;52.40;;;;;;5015689;28;20472;-84
2022/02/18 07:52:25;;;;;;;4.00;2.63;;;15.40;52.40;;;;;;5015745;28;20468;-84
2022/02/18 07:54:54;;;;;;;5.33;2.50;;;15.30;52.30;;;;;;5015428;28;20456;-84
2022/02/18 07:57:22;;;;;;;6.80;2.63;;;15.30;52.20;;;;;;5016007;28;20430;-84
2022/02/18 07:59:50;;;;;;;5.73;2.47;;;15.30;52.40;;;;;;5015812;28;20441;-84
2022/02/18 08:02:37;;;;;;;6.70;2.70;;;15.40;52.40;;;;;;5011446;28;20464;-84
2022/02/18 08:05:06;;;;;;;7.70;2.70;;;15.40;52.30;;;;;;5015297;28;20457;-85
2022/02/18 08:07:34;;;;;;;7.47;2.63;;;15.40;52.30;;;;;;5015750;28;20421;-84
2022/02/18 08:10:02;;;;;;;6.80;2.97;;;15.40;52.30;;;;;;5015905;28;20433;-84
2022/02/18 08:12:32;;;;;;;6.17;2.60;;;15.40;52.40;;;;;;5014933;28;20437;-85
2022/02/18 08:14:59;;;;;;;8.13;2.53;;;15.30;52.30;;;;;;5015596;28;20457;-85
2022/02/18 08:18:05;;;;;;;5.37;2.70;;;15.30;52.20;;;;;;5002253;28;20458;-85
2022/02/18 08:20:34;;;;;;;9.77;2.80;;;15.30;52.30;;;;;;4989224;28;20447;-85
2022/02/18 08:23:02;;;;;;;9.40;2.87;;;15.30;52.30;;;;;;4998150;28;20528;-85
2022/02/18 08:25:30;;;;;;;6.10;2.80;;;15.40;52.30;;;;;;4996662;28;20458;-85
2022/02/18 08:28:01;;;;;;;8.93;2.77;;;15.30;52.30;;;;;;4996570;28;20429;-85
2022/02/18 08:30:29;;;;;;;6.40;2.93;;;15.30;52.40;;;;;;4996555;28;20941;-85
2022/02/18 08:32:57;;;;;;;9.80;3.27;;;15.30;52.30;;;;;;4996120;28;20500;-85
2022/02/18 08:35:25;;;;;;;5.70;2.70;;;15.40;52.40;;;;;;4992091;28;20469;-85
2022/02/18 08:37:55;;;;;;;5.40;2.80;;;15.30;52.20;;;;;;4995595;28;20971;-86
2022/02/18 08:40:23;;;;;;;6.63;2.83;;;15.40;52.30;;;;;;4995575;28;20512;-86
2022/02/18 08:42:51;;;;;;;6.90;3.20;;;15.40;52.20;;;;;;4995370;28;20473;-86
2022/02/18 08:45:19;;;;;;;5.87;2.60;;;15.40;52.30;;;;;;4995461;28;20473;-86
2022/02/18 08:47:47;;;;;;;9.87;3.03;;;15.40;52.20;;;;;;4995670;28;20496;-86
2022/02/18 08:50:16;;;;;;;7.10;2.80;;;15.40;52.20;;;;;;4995610;28;20449;-87
2022/02/18 08:52:44;;;;;;;4.93;2.80;;;15.40;52.20;;;;;;4990610;28;20481;-86
2022/02/18 08:55:14;;;;;;;11.13;2.97;;;15.40;52.10;;;;;;4995500;28;20461;-86
2022/02/18 08:57:44;;;;;;;6.00;3.13;;;15.50;52.10;;;;;;4994634;28;20464;-86
2022/02/18 09:00:13;;;;;;;8.40;3.10;;;15.40;52.00;;;;;;4995663;28;20433;-86
2022/02/18 09:02:42;;;;;;;6.53;2.80;;;15.40;52.10;;;;;;4995276;28;20469;-86
2022/02/18 09:05:10;;;;;;;8.70;3.40;;;15.50;52.10;;;;;;4995656;28;20461;-86
2022/02/18 09:07:41;;;;;;;12.10;3.70;;;15.40;52.20;;;;;;4995528;28;20487;-86
2022/02/18 09:10:10;;;;;;;8.93;3.33;;;15.50;52.10;;;;;;4993909;28;20434;-86
2022/02/18 09:12:40;;;;;;;8.87;3.20;;;15.50;52.00;;;;;;4994771;28;20469;-86
2022/02/18 09:15:09;;;;;;;6.77;3.37;;;15.50;52.10;;;;;;4975603;28;20557;-86
2022/02/18 09:17:38;;;;;;;7.70;2.90;;;15.50;52.00;;;;;;4976292;28;20541;-86
2022/02/18 09:20:07;;;;;;;3.00;2.23;;;15.50;52.10;;;;;;4975831;28;20454;-86
2022/02/18 09:22:35;;;;;;;8.93;3.40;;;15.50;52.10;;;;;;4975669;28;20569;-84
2022/02/18 09:25:03;;;;;;;8.70;3.70;;;15.50;52.10;;;;;;4975739;28;20521;-82
2022/02/18 09:27:32;;;;;;;8.67;3.60;;;15.50;52.10;;;;;;4985499;28;20465;-84
2022/02/18 09:30:02;;;;;;;8.97;3.60;;;15.50;52.20;;;;;;4995385;28;20444;-84
2022/02/18 09:32:30;;;;;;;8.20;3.40;;;15.50;52.10;;;;;;4995651;28;20469;-85
2022/02/18 09:35:01;;;;;;;5.60;3.37;;;15.50;52.10;;;;;;4996059;28;20530;-86
2022/02/18 09:37:29;;;;;;;11.30;3.50;;;15.50;52.10;;;;;;4995304;28;20441;-86
2022/02/18 09:39:57;;;;;;;9.20;3.90;;;15.50;52.00;;;;;;4994944;28;20454;-86
2022/02/18 09:42:25;;;;;;;7.53;3.87;;;15.50;52.10;;;;;;4995289;28;20481;-85
2022/02/18 09:44:53;;;;;;;14.83;3.60;;;15.50;52.10;;;;;;4992370;28;20736;-86
2022/02/18 09:47:23;;;;;;;14.53;4.50;;;15.50;52.20;;;;;;4995296;28;20503;-86
2022/02/18 09:49:52;;;;;;;15.03;4.20;;;15.50;52.10;;;;;;4995625;28;20471;-87
2022/02/18 09:52:20;;;;;;;10.10;4.03;;;15.50;52.20;;;;;;4996242;28;20484;-86
2022/02/18 09:54:48;;;;;;;9.30;3.87;;;15.50;52.20;;;;;;4996746;28;20479;-86
2022/02/18 09:57:16;;;;;;;6.03;3.40;;;15.50;52.20;;;;;;4999067;28;20441;-85
2022/02/18 09:59:45;;;;;;;8.23;3.93;;;15.50;52.10;;;;;;4995934;28;20479;-86
2022/02/18 10:02:14;;;;;;;11.13;3.73;;;15.50;52.20;;;;;;4993215;28;20493;-86
2022/02/18 10:04:44;;;;;;;13.53;4.20;;;15.50;52.40;;;;;;4995416;28;20473;-85
2022/02/18 10:07:12;;;;;;;8.10;3.93;;;15.40;52.20;;;;;;4995112;28;20434;-86
2022/02/18 10:09:41;;;;;;;15.43;3.93;;;15.40;52.30;;;;;;4995418;28;20449;-86
2022/02/18 10:12:10;;;;;;;9.70;4.57;;;15.50;52.30;;;;;;4996315;28;20448;-86
2022/02/18 10:14:57;;;;;;;17.70;4.50;;;15.50;52.50;;;;;;4994029;28;20473;-85
2022/02/18 10:17:26;;;;;;;10.73;4.47;;;15.50;52.40;;;;;;4994235;28;20479;-86
2022/02/18 10:19:55;;;;;;;11.43;3.87;;;15.40;52.50;;;;;;4992113;28;20589;-87
2022/02/18 10:22:25;;;;;;;15.60;5.07;;;15.40;52.50;;;;;;4994170;28;20500;-86
2022/02/18 10:24:53;;;;;;;10.70;4.87;;;15.50;52.50;;;;;;4994119;28;20564;-86
2022/02/18 10:27:24;;;;;;;10.50;4.17;;;15.50;52.60;;;;;;4994139;28;20487;-86
2022/02/18 10:29:59;;;;;;;10.70;3.77;;;15.50;52.50;;;;;;4994444;28;20430;-86
2022/02/18 10:32:27;;;;;;;11.97;3.80;;;15.50;52.60;;;;;;4994305;28;20483;-86
2022/02/18 10:35:00;;;;;;;4.63;3.53;;;15.50;52.80;;;;;;4994267;28;20488;-86
2022/02/18 10:37:30;;;;;;;9.63;3.93;;;15.50;52.60;;;;;;4993034;28;20457;-87
2022/02/18 10:40:10;;;;;;;9.80;3.67;;;15.50;52.70;;;;;;4995422;28;20515;-88
2022/02/18 10:42:39;;;;;;;7.10;3.67;;;15.50;52.70;;;;;;4995505;28;20457;-88
2022/02/18 10:45:11;;;;;;;7.20;3.30;;;15.50;52.70;;;;;;4994447;28;20481;-88
2022/02/18 10:47:40;;;;;;;11.20;3.43;;;15.50;52.80;;;;;;4994398;28;20453;-88
2022/02/18 10:50:18;;;;;;;9.17;3.80;;;15.50;52.80;;;;;;4994661;28;20445;-87
2022/02/18 10:53:08;;;;;;;7.00;3.43;;;15.50;52.90;;;;;;4994679;28;20453;-86
2022/02/18 10:56:15;;;;;;;9.07;3.50;;;15.50;52.70;;;;;;4993126;28;20476;-87
2022/02/18 10:58:44;;;;;;;6.60;3.43;;;15.60;52.90;;;;;;4994030;28;20449;-87
2022/02/18 11:01:13;;;;;;;6.60;3.60;;;15.50;52.80;;;;;;4997206;28;20454;-86
2022/02/18 11:03:43;;;;;;;6.80;3.57;;;15.50;53.00;;;;;;5004141;28;20473;-87
2022/02/18 11:06:13;;;;;;;12.53;4.00;;;15.50;53.10;;;;;;4997922;28;20845;-86
2022/02/18 11:08:52;;;;;;;6.87;3.23;;;15.50;53.10;;;;;;5000268;28;20422;-86
2022/02/18 11:11:22;;;;;;;12.30;4.00;;;15.60;53.10;;;;;;5008465;28;20476;-86
2022/02/18 11:13:50;;;;;;;5.27;3.40;;;15.50;53.10;;;;;;5003368;28;20457;-86
2022/02/18 11:16:19;;;;;;;7.63;3.70;;;15.50;53.10;;;;;;5004966;28;20465;-86
2022/02/18 11:18:47;;;;;;;8.10;3.80;;;15.60;53.30;;;;;;5008745;28;20507;-86
2022/02/18 11:21:22;;;;;;;6.10;3.20;;;15.60;53.30;;;;;;5007345;28;20835;-86
2022/02/18 11:23:51;;;;;;;6.43;3.90;;;15.60;53.30;;;;;;5003567;28;20496;-86
2022/02/18 11:26:20;;;;;;;6.73;3.40;;;15.60;53.50;;;;;;5002117;28;20473;-86
2022/02/18 11:28:49;;;;;;;8.90;3.77;;;15.60;53.30;;;;;;5002335;28;20519;-86
2022/02/18 11:31:19;;;;;;;9.03;3.90;;;15.70;53.40;;;;;;5001609;28;20477;-85
2022/02/18 11:34:08;;;;;;;5.37;3.20;;;15.70;53.50;;;;;;5002672;28;20417;-85
2022/02/18 11:37:03;;;;;;;6.30;3.30;;;15.70;53.40;;;;;;5003998;28;20472;-86
2022/02/18 11:40:03;;;;;;;7.30;3.63;;;15.70;53.40;;;;;;4996465;28;20441;-85
2022/02/18 11:42:39;;;;;;;5.40;3.03;;;15.70;53.50;;;;;;4988609;28;20492;-85
2022/02/18 11:45:27;;;;;;;5.63;3.77;;;15.80;53.70;;;;;;4993693;28;20519;-84
2022/02/18 11:47:55;;;;;;;6.33;3.50;;;15.80;53.70;;;;;;4989985;28;20496;-85
2022/02/18 11:50:27;;;;;;;4.97;3.20;;;15.80;53.70;;;;;;4995262;28;20452;-85
2022/02/18 11:52:56;;;;;;;7.20;3.30;;;15.80;53.80;;;;;;4994744;28;20433;-85
2022/02/18 11:55:28;;;;;;;4.03;3.20;;;15.80;53.80;;;;;;4994624;28;20461;-85
2022/02/18 11:57:57;;;;;;;3.33;3.00;;;15.80;53.80;;;;;;4995660;28;20464;-85
2022/02/18 12:00:37;;;;;;;8.10;3.80;;;15.90;53.90;;;;;;4995535;28;20437;-85
2022/02/18 12:03:12;;;;;;;7.47;3.03;;;15.90;54.00;;;;;;4992509;28;20468;-86
2022/02/18 12:06:05;;;;;;;6.03;3.90;;;15.90;54.10;;;;;;4996009;28;20468;-83
2022/02/18 12:08:35;;;;;;;7.20;3.70;;;15.90;54.00;;;;;;4996446;28;20437;-84
2022/02/18 12:11:12;;;;;;;5.70;2.87;;;15.90;54.10;;;;;;4996368;28;20441;-85
2022/02/18 12:13:53;;;;;;;6.13;3.33;;;16.00;54.40;;;;;;4995422;28;20457;-84
2022/02/18 12:16:22;;;;;;;5.63;3.10;;;16.00;54.20;;;;;;4994943;28;20519;-85
2022/02/18 12:19:06;;;;;;;7.03;3.10;;;16.00;54.20;;;;;;4993738;28;20457;-84
2022/02/18 12:21:34;;;;;;;6.87;3.13;;;16.10;54.40;;;;;;4995463;28;20456;-85
2022/02/18 12:24:35;;;;;;;6.67;3.80;;;16.20;54.20;;;;;;4996599;28;20425;-84
2022/02/18 12:27:34;;;;;;;6.90;3.13;;;16.10;54.20;;;;;;4995845;28;20456;-84
2022/02/18 12:30:32;;;;;;;6.73;3.33;;;16.20;54.40;;;;;;4998454;28;20437;-84
2022/02/18 12:33:00;;;;;;;5.90;3.50;;;16.20;54.20;;;;;;4998723;28;20465;-85
2022/02/18 12:35:29;;;;;;;4.70;3.60;;;16.20;54.20;;;;;;5002782;28;20516;-85
2022/02/18 12:37:57;;;;;;;6.60;3.57;;;16.20;54.50;;;;;;5003393;28;20437;-85
2022/02/18 12:40:25;;;;;;;6.13;3.23;;;16.20;54.60;;;;;;5005011;28;20440;-84
2022/02/18 12:42:58;;;;;;;4.10;3.03;;;16.30;54.40;;;;;;5005065;28;20425;-84
2022/02/18 12:45:36;;;;;;;5.33;3.97;;;16.30;54.50;;;;;;5001249;28;20476;-84
2022/02/18 12:48:04;;;;;;;7.80;3.83;;;16.40;54.60;;;;;;5004791;28;20441;-85
2022/02/18 12:50:34;;;;;;;3.47;3.00;;;16.40;54.30;;;;;;5004364;28;20874;-84
2022/02/18 12:53:01;;;;;;;5.80;3.70;;;16.50;54.30;;;;;;5001313;28;20543;-84
2022/02/18 12:55:31;;;;;;;4.07;3.20;;;16.50;54.30;;;;;;5004506;28;20453;-84
2022/02/18 12:58:00;;;;;;;3.83;3.17;;;16.60;54.50;;;;;;5006906;28;20434;-85
2022/02/18 13:00:30;;;;;;;5.80;3.10;;;16.60;54.30;;;;;;5006757;28;20433;-85
2022/02/18 13:02:59;;;;;;;3.97;3.17;;;16.60;54.50;;;;;;5005982;28;20472;-85
2022/02/18 13:05:30;;;;;;;6.40;3.30;;;16.60;54.50;;;;;;4995918;28;20737;-84
2022/02/18 13:07:59;;;;;;;3.13;2.77;;;16.60;54.50;;;;;;5005669;28;20438;-85
2022/02/18 13:10:32;;;;;;;4.83;3.20;;;16.70;54.70;;;;;;5003176;28;20458;-83